Latest Weather Observations for Yarrawonga

IDV60801

Issued at 9:52 pm EST Monday 18 June 2018 (issued every 10 minutes, with the page automatically refreshed every 10 minutes)

About weather observations | Map of weather stations | Latest weather observations for VIC | Other Formats
Station Details ID: 081124 Name: YARRAWONGA Lat: -36.03 Lon: 146.03 Height: 128.9 m
Data from the previous 72 hours. | See also: Recent months at Yarrawonga
Date/Time
EST
Temp
°C
App
Temp
°C
Dew
Point
°C
Rel
Hum
%
Delta-T
°C
Wind Press
QNH
hPa
Press
MSL
hPa
Rain since
9am
mm
Dir  Spd
km/h
Gust
km/h
Spd
kts
Gust
kts
18/09:30pm 5.6 2.3 4.7 94 0.4 SW 11 15 6 8 1025.2 1025.4 0.0
18/09:00pm 7.5 3.3 5.5 87 0.9 SW 17 20 9 11 1025.0 1025.2 0.0
18/08:30pm 6.0 2.4 5.0 93 0.4 WSW 13 17 7 9 1024.9 1025.1 0.0
18/08:00pm 6.1 2.5 5.1 93 0.4 WSW 13 15 7 8 1025.0 1025.2 0.0
18/07:30pm 7.5 3.4 4.3 80 1.4 SW 15 17 8 9 1024.7 1024.9 0.0
18/07:00pm 8.7 3.9 4.5 75 1.9 SSW 19 24 10 13 1024.6 1024.8 0.0
18/06:30pm 9.2 3.9 4.8 74 2.0 SSW 22 32 12 17 1024.4 1024.6 0.0
18/06:00pm 9.2 5.0 5.8 79 1.6 SW 17 24 9 13 1024.4 1024.6 0.0
18/05:30pm 9.3 5.2 6.0 80 1.5 SW 17 24 9 13 1024.3 1024.5 0.0
18/05:00pm 10.4 6.8 6.9 79 1.7 SW 15 20 8 11 1024.0 1024.2 0.0
18/04:30pm 11.9 7.6 7.2 73 2.3 SW 19 26 10 14 1023.9 1024.1 0.0
18/04:00pm 13.0 8.7 7.0 67 2.9 SSW 19 24 10 13 1023.5 1023.7 0.0
18/03:30pm 13.4 8.6 7.4 67 3.0 SSW 22 32 12 17 1023.5 1023.7 0.0
18/03:00pm 13.7 8.7 7.9 68 2.9 SW 24 32 13 17 1023.4 1023.6 0.0
18/02:30pm 14.2 9.5 7.9 66 3.1 SW 22 30 12 16 1023.4 1023.6 0.0
18/02:00pm 13.6 7.9 8.2 70 2.7 SW 28 35 15 19 1023.3 1023.5 0.0
18/01:30pm 13.6 8.6 8.2 70 2.7 SW 24 37 13 20 1023.5 1023.7 0.0
18/01:00pm 13.7 8.7 9.4 75 2.2 SW 26 33 14 18 1023.6 1023.8 0.0
18/12:30pm 13.6 9.4 9.6 77 2.1 SSW 22 33 12 18 1023.5 1023.7 0.0
18/12:00pm 13.2 8.2 9.6 79 1.8 SSW 26 33 14 18 1023.9 1024.1 0.0
18/11:30am 12.6 7.2 9.4 81 1.6 SW 28 35 15 19 1024.1 1024.3 0.0
18/11:00am 12.4 8.2 9.8 84 1.3 SSW 22 30 12 16 1024.0 1024.2 0.0
18/10:30am 11.3 6.7 9.6 89 0.9 SW 24 28 13 15 1024.0 1024.2 0.0
18/10:00am 10.5 6.6 9.3 92 0.6 SW 20 26 11 14 1023.8 1024.0 0.0
18/09:30am 9.8 5.8 9.0 95 0.4 SW 20 26 11 14 1023.5 1023.7 0.0
18/09:00am 8.8 5.2 8.5 98 0.1 SW 17 22 9 12 1023.3 1023.5 0.8
18/08:30am 7.7 3.5 7.6 99 0.0 SW 19 24 10 13 1022.9 1023.2 0.8
18/08:00am 7.1 2.2 7.0 99 0.0 SW 22 28 12 15 1022.6 1022.9 0.8
18/07:30am 6.8 2.2 6.7 99 0.0 SW 20 26 11 14 1022.3 1022.6 0.8
18/07:00am 6.8 2.2 6.7 99 0.0 SW 20 26 11 14 1022.0 1022.3 0.8
18/06:30am 6.8 1.5 6.7 99 0.0 SW 24 32 13 17 1021.6 1021.9 0.8
18/06:00am 6.5 1.9 6.4 99 0.0 SW 20 24 11 13 1021.3 1021.5 0.8
18/05:30am 6.9 2.0 6.8 99 0.0 WSW 22 26 12 14 1021.0 1021.2 0.8
18/05:00am 6.3 3.0 6.2 99 0.0 WSW 13 17 7 9 1021.0 1021.2 0.6
18/04:30am 6.6 3.3 6.5 99 0.0 SW 13 15 7 8 1021.1 1021.3 0.6
18/04:00am 6.9 2.9 6.8 99 0.0 WSW 17 19 9 10 1020.9 1021.1 0.6
18/03:30am 6.9 2.6 6.8 99 0.0 WSW 19 26 10 14 1020.7 1020.9 0.6
18/03:00am 6.2 2.5 6.1 99 0.0 WSW 15 19 8 10 1020.4 1020.6 0.6
18/02:30am 6.3 1.8 6.2 99 0.0 WSW 19 22 10 12 1020.4 1020.6 0.6
18/02:00am 6.4 2.3 6.3 99 0.0 WSW 17 20 9 11 1020.2 1020.4 0.6
18/01:30am 6.7 2.7 6.6 99 0.0 WSW 17 22 9 12 1020.1 1020.3 0.6
18/01:00am 6.7 2.1 6.6 99 0.0 WSW 20 26 11 14 1020.0 1020.2 0.6
18/12:30am 6.7 2.3 6.6 99 0.0 WSW 19 22 10 12 1019.7 1019.9 0.6
18/12:00am 7.1 2.6 7.0 99 0.0 WSW 20 24 11 13 1019.5 1019.7 0.6
 
Date/Time
EST
Temp
°C
App
Temp
°C
Dew
Point
°C
Rel
Hum
%
Delta-T
°C
Wind Press
QNH
hPa
Press
MSL
hPa
Rain since
9am
mm
Dir  Spd
km/h
Gust
km/h
Spd
kts
Gust
kts
17/11:30pm 7.3 2.9 7.2 99 0.0 WSW 20 24 11 13 1019.3 1019.5 0.6
17/11:00pm 7.0 2.7 6.9 99 0.0 WSW 19 20 10 11 1019.2 1019.4 0.6
17/10:30pm 7.4 3.0 7.3 99 0.0 WSW 20 24 11 13 1018.9 1019.1 0.6
17/10:00pm 7.7 3.0 7.6 99 0.0 WSW 22 26 12 14 1018.9 1019.1 0.6
17/09:30pm 8.2 4.0 8.1 99 0.0 WSW 20 28 11 15 1018.6 1018.8 0.6
17/09:00pm 8.4 4.2 8.3 99 0.0 SW 20 26 11 14 1018.3 1018.5 0.6
17/08:30pm 8.9 4.5 8.9 100 0.0 WSW 22 28 12 15 1017.9 1018.1 0.6
17/08:00pm 8.9 4.9 8.9 100 0.0 WSW 20 24 11 13 1017.7 1017.9 0.6
17/07:30pm 8.9 4.9 8.9 100 0.0 WSW 20 28 11 15 1017.3 1017.5 0.6
17/07:00pm 9.1 4.4 9.1 100 0.0 WSW 24 30 13 16 1016.9 1017.1 0.6
17/06:30pm 8.9 4.9 8.9 100 0.0 WSW 20 24 11 13 1016.3 1016.5 0.6
17/06:00pm 9.0 4.2 8.9 99 0.0 WSW 24 32 13 17 1015.9 1016.1 0.6
17/05:30pm 9.5 3.6 9.2 98 0.1 WSW 30 37 16 20 1015.8 1016.0 0.6
17/05:00pm 9.5 4.8 9.2 98 0.1 WSW 24 33 13 18 1015.3 1015.5 0.6
17/04:30pm 9.9 5.2 9.3 96 0.3 WSW 24 32 13 17 1015.0 1015.1 0.6
17/04:00pm 10.3 4.5 9.4 94 0.5 WSW 30 39 16 21 1014.4 1014.6 0.6
17/03:30pm 10.7 4.6 9.6 93 0.6 WSW 32 43 17 23 1014.2 1014.4 0.6
17/03:00pm 10.8 4.2 9.9 94 0.5 WSW 35 46 19 25 1013.8 1014.0 0.6
17/02:30pm 10.8 3.7 9.7 93 0.6 WSW 37 48 20 26 1013.5 1013.7 0.6
17/02:00pm 11.0 3.6 9.9 93 0.6 WSW 39 52 21 28 1013.3 1013.5 0.6
17/01:30pm 10.3 4.0 9.7 96 0.3 W 33 50 18 27 1013.3 1013.5 0.6
17/01:00pm 10.1 3.8 9.0 93 0.5 W 32 48 17 26 1013.2 1013.4 0.6
17/12:54pm 10.0 4.6 9.4 96 0.3 WSW 28 46 15 25 1013.4 1013.6 0.6
17/12:30pm 9.2 3.3 9.1 99 0.0 W 30 37 16 20 1013.6 1013.8 0.6
17/12:00pm 8.8 2.8 8.7 99 0.0 W 30 43 16 23 1013.8 1014.0 0.4
17/11:30am 9.2 2.8 8.7 97 0.2 W 32 43 17 23 1014.3 1014.5 0.2
17/11:00am 8.6 4.1 8.6 100 0.0 W 22 33 12 18 1014.3 1014.5 0.2
17/10:30am 7.5 3.1 7.4 99 0.0 W 20 30 11 16 1014.4 1014.6 0.2
17/10:00am 7.7 2.6 7.6 99 0.0 W 24 32 13 17 1014.5 1014.7 0.0
17/09:30am 7.1 1.8 7.0 99 0.0 W 24 35 13 19 1014.7 1014.9 0.0
17/09:00am 6.5 2.1 6.4 99 0.0 W 19 30 10 16 1014.5 1014.7 0.8
17/08:30am 6.0 1.8 5.9 99 0.0 WNW 17 28 9 15 1014.3 1014.5 0.8
17/08:00am 5.8 1.6 5.7 99 0.0 W 17 22 9 12 1014.3 1014.5 0.8
17/07:30am 5.6 1.7 5.5 99 0.0 W 15 20 8 11 1014.2 1014.4 0.8
17/07:00am 5.4 0.7 5.3 99 0.0 W 19 26 10 14 1013.7 1013.9 0.8
17/06:30am 5.4 0.7 5.3 99 0.0 WNW 19 28 10 15 1013.7 1013.9 0.8
17/06:00am 5.1 1.1 5.0 99 0.0 WNW 15 28 8 15 1013.5 1013.7 0.6
17/05:30am 5.0 1.0 4.9 99 0.0 WNW 15 24 8 13 1013.4 1013.6 0.6
17/05:00am 5.1 1.1 5.0 99 0.0 WNW 15 22 8 12 1013.5 1013.7 0.4
17/04:30am 5.2 1.6 5.1 99 0.0 WNW 13 20 7 11 1013.6 1013.8 0.2
17/04:00am 5.0 1.0 4.9 99 0.0 WNW 15 20 8 11 1013.8 1014.0 0.2
17/03:30am 4.8 1.1 4.7 99 0.0 WNW 13 19 7 10 1013.9 1014.1 0.2
17/03:00am 4.5 0.4 4.4 99 0.0 WNW 15 28 8 15 1014.0 1014.2 0.2
17/02:30am 4.7 0.3 4.6 99 0.0 W 17 28 9 15 1014.3 1014.5 0.2
17/02:00am 5.2 0.9 5.1 99 0.0 WNW 17 26 9 14 1014.4 1014.6 0.2
17/01:30am 5.5 0.9 5.4 99 0.0 W 19 24 10 13 1014.3 1014.5 0.2
17/01:00am 5.5 2.0 5.4 99 0.0 WNW 13 20 7 11 1014.4 1014.6 0.2
17/12:30am 5.5 1.9 5.2 98 0.1 WNW 13 19 7 10 1014.5 1014.7 0.2
17/12:00am 5.6 2.4 5.2 97 0.2 NW 11 17 6 9 1014.2 1014.4 0.2
 
Date/Time
EST
Temp
°C
App
Temp
°C
Dew
Point
°C
Rel
Hum
%
Delta-T
°C
Wind Press
QNH
hPa
Press
MSL
hPa
Rain since
9am
mm
Dir  Spd
km/h
Gust
km/h
Spd
kts
Gust
kts
16/11:30pm 5.9 2.4 5.3 96 0.3 NW 13 19 7 10 1014.3 1014.5 0.2
16/11:00pm 6.3 2.8 5.6 95 0.3 WNW 13 19 7 10 1014.4 1014.6 0.2
16/10:30pm 6.4 3.0 5.8 96 0.3 WNW 13 20 7 11 1014.4 1014.6 0.2
16/10:00pm 6.9 3.2 6.5 97 0.2 NW 15 20 8 11 1014.7 1014.9 0.2
16/09:30pm 6.5 3.6 6.4 99 0.0 NW 11 15 6 8 1014.7 1014.9 0.2
16/09:00pm 6.1 3.1 6.0 99 0.0 NW 11 15 6 8 1014.7 1014.9 0.2
16/08:30pm 5.9 3.2 5.8 99 0.0 NNW 9 11 5 6 1014.8 1015.0 0.2
16/08:00pm 6.2 3.6 6.1 99 0.0 NW 9 11 5 6 1014.7 1014.9 0.2
16/07:30pm 6.8 4.3 6.7 99 0.0 NW 9 13 5 7 1014.7 1014.9 0.2
16/07:00pm 7.0 5.0 6.9 99 0.0 NW 7 9 4 5 1014.5 1014.7 0.2
16/06:30pm 6.6 4.7 6.5 99 0.0 NW 6 7 3 4 1014.1 1014.3 0.2
16/06:00pm 7.0 5.1 6.9 99 0.0 WNW 6 7 3 4 1013.8 1014.0 0.2
16/05:30pm 7.4 5.6 7.0 97 0.2 W 6 9 3 5 1013.7 1013.9 0.0
16/05:00pm 8.2 5.4 7.1 93 0.5 W 11 17 6 9 1013.5 1013.7 0.0
16/04:30pm 8.8 5.3 7.4 91 0.7 W 15 22 8 12 1013.5 1013.7 0.0
16/04:00pm 8.8 4.6 7.3 90 0.7 W 19 24 10 13 1013.4 1013.6 0.0
16/03:30pm 9.1 5.0 8.0 93 0.5 WSW 19 28 10 15 1013.4 1013.6 0.0
16/03:00pm 8.6 4.3 8.0 96 0.3 WSW 20 26 11 14 1013.3 1013.5 0.0
16/02:30pm 9.5 5.5 8.1 91 0.7 WSW 19 24 10 13 1013.2 1013.4 0.0
16/02:00pm 9.6 5.8 7.7 88 0.9 WSW 17 22 9 12 1013.4 1013.6 0.0
16/01:30pm 9.3 5.8 8.8 97 0.2 WSW 17 22 9 12 1013.7 1013.9 0.0
16/01:00pm 9.3 5.7 8.5 95 0.4 W 17 26 9 14 1014.1 1014.3 0.0
16/12:30pm 9.7 7.5 9.4 98 0.1 NNW 11 15 6 8 1014.5 1014.7 0.0
16/12:00pm 8.6 4.5 8.6 100 0.0 NNW 20 26 11 14 1015.2 1015.4 0.0
16/11:30am 9.1 5.5 8.3 95 0.4 NW 17 24 9 13 1015.6 1015.8 0.0
16/11:00am 10.4 8.1 7.6 83 1.4 NW 9 17 5 9 1016.0 1016.2 0.0
16/10:30am 8.3 6.8 8.3 100 0.0 NNW 6 9 3 5 1016.5 1016.7 0.0
16/10:00am 7.0 4.6 6.9 99 0.0 NNW 9 13 5 7 1016.8 1017.0 0.0
16/09:30am 6.1 2.7 6.0 99 0.0 NNW 13 17 7 9 1016.8 1017.0 0.0
16/09:00am 5.3 2.1 5.2 99 0.0 NNW 11 13 6 7 1016.8 1017.0 0.0
16/08:30am 5.2 2.0 5.1 99 0.0 NNW 11 15 6 8 1016.7 1016.9 0.0
16/08:00am 5.0 2.1 4.9 99 0.0 NNW 9 13 5 7 1016.8 1017.0 0.0
16/07:30am 4.8 1.1 4.7 99 0.0 NNW 13 15 7 8 1016.8 1017.0 0.0
16/07:00am 4.5 1.2 4.4 99 0.0 NNW 11 15 6 8 1016.7 1016.9 0.0
16/06:30am 3.8 0.7 3.7 99 0.0 N 9 11 5 6 1016.5 1016.7 0.0
16/06:00am 4.3 0.6 4.2 99 0.0 N 13 13 7 7 1016.3 1016.5 0.0
16/05:30am 4.1 1.1 4.0 99 0.0 N 9 11 5 6 1016.3 1016.5 0.0
16/05:00am 4.7 1.8 4.6 99 0.0 NNW 9 11 5 6 1016.1 1016.3 0.0
16/04:30am 4.7 1.4 4.6 99 0.0 NNW 11 11 6 6 1016.1 1016.3 0.0
16/04:00am 4.7 1.8 4.6 99 0.0 NNW 9 11 5 6 1016.2 1016.4 0.0
16/03:30am 6.3 4.1 6.2 99 0.0 NW 7 11 4 6 1016.1 1016.3 0.0
16/03:00am 6.9 4.4 6.5 97 0.2 WNW 9 13 5 7 1016.1 1016.3 0.0
16/02:30am 7.0 4.1 6.6 97 0.2 W 11 17 6 9 1016.0 1016.2 0.0
16/02:00am 7.8 4.7 7.1 95 0.3 WNW 13 17 7 9 1016.0 1016.2 0.0
16/01:30am 8.0 4.9 7.1 94 0.4 WNW 13 20 7 11 1015.9 1016.1 0.0
16/01:00am 8.6 4.8 7.4 92 0.6 WNW 17 26 9 14 1015.9 1016.1 0.0
16/12:30am 9.0 5.3 7.8 92 0.6 WNW 17 24 9 13 1015.9 1016.1 0.0
16/12:00am 9.3 5.2 7.9 91 0.7 WNW 19 30 10 16 1015.9 1016.1 0.0
 
Date/Time
EST
Temp
°C
App
Temp
°C
Dew
Point
°C
Rel
Hum
%
Delta-T
°C
Wind Press
QNH
hPa
Press
MSL
hPa
Rain since
9am
mm
Dir  Spd
km/h
Gust
km/h
Spd
kts
Gust
kts
15/11:30pm 9.1 5.4 8.0 93 0.5 NW 17 26 9 14 1016.0 1016.2 0.0
15/11:00pm 8.8 5.5 8.0 95 0.4 NW 15 20 8 11 1016.1 1016.3 0.0
15/10:30pm 8.4 5.4 7.8 96 0.3 NNW 13 19 7 10 1016.2 1016.4 0.0
15/10:00pm 9.1 5.8 7.9 92 0.6 NW 15 22 8 12 1016.1 1016.3 0.0

Other Formats:

Comma delimited format used in spreadsheet applications
http://www.bom.gov.au/fwo/IDV60801/IDV60801.94862.axf

JavaScript Object Notation format (JSON) in row-major order
http://www.bom.gov.au/fwo/IDV60801/IDV60801.94862.json